Time;durP1;ratioP1;P1;durP2;ratioP2;P2;SDS_P1;SDS_P2;PMS_P1;PMS_P2;Temp;Humidity;BMP_temperature;BMP_pressure;BME280_temperature;BME280_humidity;BME280_pressure;Samples;Min_cycle;Max_cycle;Signal;HPM_P1;HPM_P2
2022/01/14 00:00:54;;;;;;;22.85;11.55;;;6.70;99.90;;;;;;5087964;27;20077;-77
2022/01/14 00:03:20;;;;;;;27.42;11.90;;;5.90;99.90;;;;;;5105932;27;20045;-77
2022/01/14 00:05:46;;;;;;;24.10;11.70;;;5.90;99.90;;;;;;5109541;27;20092;-77
2022/01/14 00:08:11;;;;;;;27.93;11.83;;;5.90;99.90;;;;;;5105663;27;20126;-77
2022/01/14 00:10:37;;;;;;;33.95;11.77;;;6.00;99.90;;;;;;5120926;27;20280;-76
2022/01/14 00:13:12;;;;;;;25.00;11.60;;;7.10;99.90;;;;;;5109651;27;20031;-77
2022/01/14 00:15:38;;;;;;;27.20;11.50;;;5.90;99.90;;;;;;5119739;27;20039;-77
2022/01/14 00:18:04;;;;;;;23.40;11.00;;;6.30;99.90;;;;;;5121985;27;20397;-76
2022/01/14 00:20:30;;;;;;;;;;;5.90;99.90;;;;;;5122696;27;20054;-77
2022/01/14 00:22:56;;;;;;;28.27;11.20;;;5.90;99.90;;;;;;5109231;27;19915;-77
2022/01/14 00:33:29;;;;;;;19.48;9.82;;;5.90;99.90;;;;;;5101252;27;20039;-77
2022/01/14 00:35:55;;;;;;;26.13;10.43;;;5.90;99.90;;;;;;5105800;27;20031;-77
2022/01/14 00:38:21;;;;;;;22.63;10.43;;;6.00;99.90;;;;;;5121854;27;20118;-77
2022/01/14 00:40:47;;;;;;;24.60;10.68;;;5.90;99.90;;;;;;5086837;27;20031;-77
2022/01/14 00:43:12;;;;;;;24.13;10.13;;;5.90;99.90;;;;;;5104652;27;20426;-77
2022/01/14 00:45:39;;;;;;;30.50;12.27;;;6.00;99.90;;;;;;5120534;27;20042;-77
2022/01/14 00:48:05;;;;;;;28.23;11.52;;;6.20;99.90;;;;;;5123397;27;20510;-77
2022/01/14 00:50:33;;;;;;;32.85;11.77;;;6.00;99.90;;;;;;5122631;27;20035;-77
2022/01/14 00:52:59;;;;;;;22.70;11.27;;;6.00;99.90;;;;;;5108369;27;20039;-77
2022/01/14 00:55:39;;;;;;;32.70;11.68;;;6.00;99.90;;;;;;5114474;27;20043;-77
2022/01/14 01:00:49;;;;;;;25.90;10.60;;;6.00;99.90;;;;;;5126573;27;20039;-77
2022/01/14 01:03:15;;;;;;;24.00;11.38;;;6.00;99.90;;;;;;5107110;27;20134;-77
2022/01/14 01:05:40;;;;;;;24.88;11.60;;;6.00;99.90;;;;;;5112628;27;20038;-77
2022/01/14 01:08:11;;;;;;;26.85;11.85;;;6.90;99.90;;;;;;5090213;27;20054;-78
2022/01/14 01:10:46;;;;;;;24.33;10.75;;;6.10;99.90;;;;;;5102229;27;20035;-77
2022/01/14 01:13:22;;;;;;;27.20;11.45;;;6.00;99.90;;;;;;5111686;27;20092;-77
2022/01/14 01:15:49;;;;;;;28.08;10.77;;;5.90;99.90;;;;;;5116851;27;20075;-77
2022/01/14 01:18:16;;;;;;;25.50;12.20;;;6.90;99.90;;;;;;5121510;27;20039;-77
2022/01/14 01:20:41;;;;;;;;;;;6.60;99.90;;;;;;5114756;27;20066;-77
2022/01/14 01:23:07;;;;;;;31.13;11.88;;;5.90;99.90;;;;;;5124462;27;19966;-77
2022/01/14 01:25:40;;;;;;;26.43;12.00;;;5.80;99.90;;;;;;5092458;27;20047;-77
2022/01/14 01:28:07;;;;;;;26.83;12.07;;;7.00;99.90;;;;;;5125488;27;20382;-77
2022/01/14 01:33:00;;;;;;;29.77;12.05;;;5.80;99.90;;;;;;5125636;27;20041;-77
2022/01/14 01:35:26;;;;;;;30.85;12.38;;;5.90;99.90;;;;;;5110047;27;20038;-77
2022/01/14 01:37:52;;;;;;;29.08;12.48;;;5.80;99.90;;;;;;5125878;27;20473;-77
2022/01/14 01:40:20;;;;;;;35.40;11.90;;;5.80;99.90;;;;;;5123581;27;20038;-77
2022/01/14 01:42:46;;;;;;;31.95;11.75;;;5.80;99.90;;;;;;5129583;27;20042;-77
2022/01/14 01:45:20;;;;;;;27.50;13.13;;;6.70;99.90;;;;;;5128918;27;20045;-77
2022/01/14 01:47:50;;;;;;;27.20;11.73;;;5.90;99.90;;;;;;5107117;27;20037;-77
2022/01/14 01:50:19;;;;;;;29.88;12.57;;;5.90;99.90;;;;;;5112105;27;20068;-77
2022/01/14 01:52:45;;;;;;;29.45;11.65;;;5.90;99.90;;;;;;5106578;27;20130;-77
2022/01/14 01:55:12;;;;;;;24.48;11.60;;;5.90;99.90;;;;;;5122391;27;20407;-77
2022/01/14 01:57:37;;;;;;;27.92;12.45;;;6.80;99.90;;;;;;5106578;27;20048;-77
2022/01/14 02:00:07;;;;;;;28.90;11.90;;;5.90;99.90;;;;;;5127813;27;20553;-77
2022/01/14 02:02:36;;;;;;;31.67;11.77;;;6.00;99.90;;;;;;5133509;27;20081;-77
2022/01/14 02:05:04;;;;;;;27.90;13.27;;;6.10;99.90;;;;;;5110772;27;20037;-77
2022/01/14 02:07:31;;;;;;;31.70;12.85;;;6.10;99.90;;;;;;5123061;27;20175;-77
2022/01/14 02:09:58;;;;;;;29.20;12.18;;;6.00;99.90;;;;;;5118090;27;20047;-77
2022/01/14 02:12:26;;;;;;;28.75;12.70;;;6.00;99.90;;;;;;5092288;27;20441;-77
2022/01/14 02:15:07;;;;;;;30.75;13.65;;;6.10;99.90;;;;;;5112382;27;20038;-77
2022/01/14 02:23:05;;;;;;;32.45;12.98;;;6.00;99.90;;;;;;5123595;27;20558;-77
2022/01/14 02:25:31;;;;;;;25.95;12.73;;;6.00;99.90;;;;;;5124248;27;20047;-77
2022/01/14 02:28:07;;;;;;;29.73;13.02;;;6.00;99.90;;;;;;5101266;27;20085;-77
2022/01/14 02:30:35;;;;;;;27.33;12.52;;;6.00;99.90;;;;;;5110903;27;20038;-77
2022/01/14 02:33:01;;;;;;;28.30;12.40;;;6.00;99.90;;;;;;5125525;27;20386;-77
2022/01/14 02:35:28;;;;;;;24.70;12.10;;;6.00;99.90;;;;;;5123024;27;20118;-77
2022/01/14 02:37:54;;;;;;;32.00;14.18;;;6.10;99.90;;;;;;5122922;27;20035;-77
2022/01/14 02:40:21;;;;;;;29.83;13.48;;;6.00;99.90;;;;;;5125460;27;20035;-77
2022/01/14 02:42:48;;;;;;;31.85;14.60;;;6.10;99.90;;;;;;5130182;27;20153;-77
2022/01/14 02:45:15;;;;;;;29.17;13.90;;;7.40;99.90;;;;;;5125074;27;20506;-77
2022/01/14 02:47:41;;;;;;;32.13;13.98;;;6.10;99.90;;;;;;5124627;27;20047;-77
2022/01/14 02:50:09;;;;;;;33.47;15.13;;;6.00;99.90;;;;;;5086566;27;20043;-77
2022/01/14 02:55:20;;;;;;;28.65;13.50;;;6.00;99.90;;;;;;5128688;27;20042;-77
2022/01/14 02:57:52;;;;;;;28.25;14.63;;;6.00;99.90;;;;;;5122706;27;20127;-77
2022/01/14 03:00:21;;;;;;;35.38;14.55;;;6.00;99.90;;;;;;5128758;27;20039;-77
2022/01/14 03:02:49;;;;;;;28.90;14.00;;;6.00;99.90;;;;;;5104855;27;20436;-77
2022/01/14 03:05:19;;;;;;;30.27;14.90;;;6.00;99.90;;;;;;5121492;27;20517;-78
2022/01/14 03:07:46;;;;;;;32.90;15.45;;;6.00;99.90;;;;;;5103795;27;20049;-77
2022/01/14 03:10:14;;;;;;;32.92;14.48;;;6.00;99.90;;;;;;5123458;27;20104;-77
2022/01/14 03:12:41;;;;;;;33.25;14.90;;;6.10;99.90;;;;;;5118477;27;20728;-77
2022/01/14 03:15:08;;;;;;;36.03;15.05;;;6.20;99.90;;;;;;5101717;28;20039;-77
2022/01/14 03:17:33;;;;;;;31.80;15.65;;;6.00;99.90;;;;;;5106544;27;20035;-77
2022/01/14 03:20:01;;;;;;;33.33;15.18;;;6.50;99.90;;;;;;5118918;27;20149;-77
2022/01/14 03:22:36;;;;;;;31.98;14.73;;;6.10;99.90;;;;;;5123352;27;20063;-77
2022/01/14 03:27:48;;;;;;;33.25;14.52;;;6.10;99.90;;;;;;5114629;27;20112;-77
2022/01/14 03:30:14;;;;;;;32.97;14.60;;;6.60;99.90;;;;;;5104038;27;20039;-77
2022/01/14 03:32:41;;;;;;;31.42;14.57;;;6.20;99.90;;;;;;5118398;27;20039;-77
2022/01/14 03:35:08;;;;;;;30.77;14.55;;;6.20;99.90;;;;;;5120472;27;20047;-77
2022/01/14 03:37:34;;;;;;;34.45;15.02;;;6.20;99.90;;;;;;5100933;27;20091;-77
2022/01/14 03:40:01;;;;;;;36.55;15.23;;;6.20;99.90;;;;;;5120941;27;20475;-77
2022/01/14 03:42:26;;;;;;;31.92;14.32;;;7.20;99.90;;;;;;5120930;27;20043;-77
2022/01/14 03:44:52;;;;;;;32.30;14.27;;;6.20;99.90;;;;;;5120411;27;20384;-77
2022/01/14 03:47:18;;;;;;;30.73;15.20;;;6.20;99.90;;;;;;5084215;28;20039;-77
2022/01/14 03:49:44;;;;;;;34.80;15.23;;;7.00;99.90;;;;;;5086384;28;20376;-77
2022/01/14 03:52:10;;;;;;;33.70;15.03;;;6.90;99.90;;;;;;5112850;27;20031;-77
2022/01/14 03:54:35;;;;;;;30.05;15.13;;;6.20;99.90;;;;;;5108051;27;20756;-77
2022/01/14 03:57:01;;;;;;;26.90;14.07;;;7.50;99.90;;;;;;5091573;27;20043;-77
2022/01/14 03:59:27;;;;;;;59.57;15.23;;;6.30;99.90;;;;;;5128430;27;20277;-77
2022/01/14 04:01:52;;;;;;;31.83;14.45;;;6.30;99.90;;;;;;5086196;27;20423;-77
2022/01/14 04:04:18;;;;;;;28.57;14.23;;;6.30;99.90;;;;;;5120610;27;20043;-77
2022/01/14 04:06:44;;;;;;;35.90;14.60;;;7.50;99.90;;;;;;5093299;27;20285;-77
2022/01/14 04:09:10;;;;;;;32.80;14.52;;;6.40;99.90;;;;;;5105786;27;20050;-77
2022/01/14 04:11:35;;;;;;;30.98;15.00;;;7.10;99.90;;;;;;5117441;27;20088;-77
2022/01/14 04:16:46;;;;;;;31.58;14.02;;;6.70;99.90;;;;;;5122331;27;20055;-77
2022/01/14 04:19:11;;;;;;;32.23;14.87;;;6.30;99.90;;;;;;5103084;27;20479;-77
2022/01/14 04:21:37;;;;;;;34.45;13.52;;;6.30;99.90;;;;;;5122640;27;20281;-77
2022/01/14 04:24:03;;;;;;;30.87;13.57;;;6.40;99.90;;;;;;5100469;28;20039;-77
2022/01/14 04:26:29;;;;;;;34.05;14.88;;;6.40;99.90;;;;;;5102673;27;20047;-77
2022/01/14 04:28:54;;;;;;;31.63;13.43;;;6.40;99.90;;;;;;5100219;28;20096;-77
2022/01/14 04:31:20;;;;;;;34.23;13.50;;;6.40;99.90;;;;;;5097429;28;20404;-77
2022/01/14 04:33:46;;;;;;;29.90;14.40;;;6.70;99.90;;;;;;5120224;28;20078;-77
2022/01/14 04:36:12;;;;;;;36.78;14.40;;;5.50;99.90;;;;;;5117521;28;20039;-77
2022/01/14 04:38:37;;;;;;;31.73;13.88;;;6.30;99.90;;;;;;5100032;28;20106;-77
2022/01/14 04:41:04;;;;;;;31.65;14.98;;;6.40;99.90;;;;;;5097859;28;20092;-77
2022/01/14 04:43:30;;;;;;;;;;;6.90;99.90;;;;;;5122501;28;20039;-77
2022/01/14 04:48:25;;;;;;;29.73;14.30;;;6.60;99.90;;;;;;5120158;28;20046;-77
2022/01/14 04:50:52;;;;;;;32.33;14.60;;;6.10;99.90;;;;;;5097538;28;20040;-77
2022/01/14 04:53:18;;;;;;;29.73;14.63;;;6.80;99.90;;;;;;5114743;28;20173;-77
2022/01/14 04:55:44;;;;;;;34.90;14.35;;;6.00;99.90;;;;;;5089860;28;20114;-77
2022/01/14 04:58:09;;;;;;;34.17;15.73;;;6.40;99.90;;;;;;5120065;28;20432;-76
2022/01/14 05:00:37;;;;;;;31.92;14.15;;;6.80;99.90;;;;;;5119585;28;20038;-77
2022/01/14 05:03:03;;;;;;;30.33;14.63;;;6.00;99.90;;;;;;5119805;28;20032;-77
2022/01/14 05:05:32;;;;;;;36.83;15.45;;;6.10;99.90;;;;;;5102614;28;20043;-77
2022/01/14 05:07:59;;;;;;;33.35;15.35;;;6.10;99.90;;;;;;5122156;28;20127;-77
2022/01/14 05:12:51;;;;;;;38.58;15.63;;;6.10;99.90;;;;;;5088876;28;20036;-77
2022/01/14 05:15:18;;;;;;;35.72;15.45;;;6.30;99.90;;;;;;5117269;28;20505;-77
2022/01/14 05:17:44;;;;;;;37.88;16.23;;;6.70;99.90;;;;;;5114168;28;20081;-77
2022/01/14 05:20:11;;;;;;;30.67;15.68;;;6.20;99.90;;;;;;5111937;28;20441;-77
2022/01/14 05:22:36;;;;;;;29.70;14.40;;;6.20;99.90;;;;;;5100291;28;20040;-78
2022/01/14 05:25:03;;;;;;;32.88;15.95;;;6.50;99.90;;;;;;5099554;28;20036;-77
2022/01/14 05:27:29;;;;;;;33.90;16.25;;;6.20;99.90;;;;;;5117707;28;20467;-78
2022/01/14 05:29:55;;;;;;;36.17;16.48;;;6.00;99.90;;;;;;5113889;28;20045;-78
2022/01/14 05:32:21;;;;;;;34.00;16.53;;;6.10;99.90;;;;;;5063382;28;20088;-78
2022/01/14 05:34:47;;;;;;;35.60;15.77;;;6.10;99.90;;;;;;5114446;28;20705;-78
2022/01/14 05:37:13;;;;;;;33.58;15.45;;;6.20;99.90;;;;;;5114509;28;20078;-79
2022/01/14 05:39:40;;;;;;;31.77;16.05;;;6.80;99.90;;;;;;5126066;27;20039;-78
2022/01/14 05:42:06;;;;;;;;;;;6.50;99.90;;;;;;5120695;27;20135;-78
2022/01/14 05:44:32;;;;;;;29.88;14.82;;;6.10;99.90;;;;;;5125153;27;19927;-76
2022/01/14 05:46:59;;;;;;;32.53;15.60;;;6.20;99.90;;;;;;5099553;27;20053;-76
2022/01/14 05:49:26;;;;;;;37.45;16.23;;;6.10;99.90;;;;;;5101878;27;20071;-76
2022/01/14 05:51:52;;;;;;;31.80;15.63;;;6.10;99.90;;;;;;5121155;27;20028;-78
2022/01/14 05:54:19;;;;;;;34.20;15.27;;;6.10;99.90;;;;;;5123619;27;20118;-76
2022/01/14 05:56:45;;;;;;;33.50;15.40;;;6.10;99.90;;;;;;5119659;27;20049;-76
2022/01/14 05:59:12;;;;;;;28.50;15.63;;;6.10;99.90;;;;;;5109824;27;20039;-76
2022/01/14 06:01:38;;;;;;;40.00;15.50;;;7.00;99.90;;;;;;5117507;27;20083;-76
2022/01/14 06:04:04;;;;;;;;;;;6.20;99.90;;;;;;5100853;27;20255;-76
2022/01/14 06:06:31;;;;;;;41.63;15.90;;;6.10;99.90;;;;;;5105505;28;19941;-76
2022/01/14 06:08:58;;;;;;;35.00;14.80;;;6.10;99.90;;;;;;5119117;27;20548;-76
2022/01/14 06:11:24;;;;;;;34.47;15.43;;;6.00;99.90;;;;;;5103713;27;20119;-76
2022/01/14 06:13:50;;;;;;;32.58;15.52;;;6.10;99.90;;;;;;5129327;27;20065;-76
2022/01/14 06:16:16;;;;;;;31.73;14.98;;;6.10;99.90;;;;;;5107891;27;20035;-76
2022/01/14 06:18:42;;;;;;;28.58;14.73;;;6.10;99.90;;;;;;5101360;28;20044;-76
2022/01/14 06:21:08;;;;;;;34.33;15.55;;;6.00;99.90;;;;;;5101189;27;20131;-76
2022/01/14 06:23:34;;;;;;;30.50;14.50;;;6.00;99.90;;;;;;5129965;27;20529;-76
2022/01/14 06:26:00;;;;;;;29.08;13.70;;;6.10;99.90;;;;;;5087724;27;20047;-76
2022/01/14 06:28:25;;;;;;;32.58;14.63;;;6.10;99.90;;;;;;5127613;27;20039;-76
2022/01/14 06:30:52;;;;;;;30.65;13.48;;;6.10;99.90;;;;;;5125485;27;20042;-77
2022/01/14 06:33:17;;;;;;;32.25;15.18;;;7.30;99.90;;;;;;5119512;27;20054;-76
2022/01/14 06:35:43;;;;;;;30.80;14.05;;;6.40;99.90;;;;;;5108469;27;20154;-76
2022/01/14 06:38:10;;;;;;;31.52;14.57;;;6.00;99.90;;;;;;5126125;27;20054;-76
2022/01/14 06:40:36;;;;;;;27.45;13.80;;;6.10;99.90;;;;;;5124480;27;20506;-76
2022/01/14 06:43:02;;;;;;;36.78;15.30;;;6.00;99.90;;;;;;5104905;28;20475;-76
2022/01/14 06:45:28;;;;;;;32.28;14.93;;;6.00;99.90;;;;;;5129187;27;20114;-76
2022/01/14 06:47:54;;;;;;;34.00;14.13;;;6.60;99.90;;;;;;5124121;27;20106;-76
2022/01/14 06:50:21;;;;;;;29.48;13.45;;;6.00;99.90;;;;;;5101828;28;20112;-76
2022/01/14 06:52:47;;;;;;;27.50;13.13;;;6.10;99.90;;;;;;5085304;27;20039;-76
2022/01/14 06:55:13;;;;;;;28.40;14.13;;;6.10;99.90;;;;;;5123559;27;20582;-76
2022/01/14 06:57:39;;;;;;;35.53;13.93;;;6.00;99.90;;;;;;5126823;27;20088;-76
2022/01/14 07:00:08;;;;;;;33.45;13.85;;;6.50;99.90;;;;;;5123845;27;20053;-76
2022/01/14 07:02:33;;;;;;;32.17;13.38;;;6.00;99.90;;;;;;5118147;27;20034;-76
2022/01/14 07:04:59;;;;;;;25.17;13.38;;;6.00;99.90;;;;;;5124662;27;20426;-76
2022/01/14 07:07:25;;;;;;;26.90;13.20;;;6.00;99.90;;;;;;5098972;28;20043;-76
2022/01/14 07:09:57;;;;;;;25.10;12.77;;;6.30;99.90;;;;;;5117917;27;20534;-76
2022/01/14 07:12:27;;;;;;;29.92;13.40;;;6.20;99.90;;;;;;5119871;27;20428;-76
2022/01/14 07:14:54;;;;;;;23.08;12.55;;;6.50;99.90;;;;;;5106273;27;20378;-76
2022/01/14 07:17:20;;;;;;;;;;;6.10;99.90;;;;;;5117815;27;20043;-75
2022/01/14 07:19:48;;;;;;;27.17;12.55;;;6.10;99.90;;;;;;5098978;28;20010;-75
2022/01/14 07:22:14;;;;;;;25.08;11.23;;;6.50;99.90;;;;;;5125070;27;20487;-75
2022/01/14 07:24:40;;;;;;;27.92;11.85;;;6.00;99.90;;;;;;5126063;27;20537;-75
2022/01/14 07:27:06;;;;;;;29.98;12.27;;;6.10;99.90;;;;;;5106067;27;20062;-75
2022/01/14 07:29:32;;;;;;;24.75;11.35;;;6.00;99.90;;;;;;5089458;27;20035;-75
2022/01/14 07:31:58;;;;;;;26.75;11.48;;;6.10;99.90;;;;;;5123014;27;20032;-75
2022/01/14 07:34:25;;;;;;;26.45;11.00;;;6.10;99.90;;;;;;5119953;27;20424;-75
2022/01/14 07:36:51;;;;;;;;;;;6.10;99.90;;;;;;5101359;28;20114;-75
2022/01/14 07:39:19;;;;;;;26.13;11.13;;;6.20;99.90;;;;;;5103322;28;19916;-75
2022/01/14 07:41:47;;;;;;;24.40;10.90;;;6.10;99.90;;;;;;5115298;27;20043;-75
2022/01/14 07:44:14;;;;;;;25.02;10.90;;;6.20;99.90;;;;;;5126523;27;20376;-75
2022/01/14 07:46:40;;;;;;;29.67;10.70;;;6.40;99.90;;;;;;5117534;27;20040;-75
2022/01/14 07:49:05;;;;;;;24.13;10.48;;;7.40;99.90;;;;;;5086037;27;20035;-75
2022/01/14 07:51:31;;;;;;;24.73;10.43;;;6.20;99.90;;;;;;5098604;28;20518;-75
2022/01/14 07:53:57;;;;;;;31.75;11.00;;;6.20;99.90;;;;;;5122210;27;20039;-75
2022/01/14 07:56:24;;;;;;;20.05;10.32;;;6.20;99.90;;;;;;5108443;27;20069;-76
2022/01/14 07:58:50;;;;;;;29.90;10.70;;;6.20;99.90;;;;;;5086364;27;20075;-75
2022/01/14 08:01:16;;;;;;;26.90;10.07;;;6.30;99.90;;;;;;5114326;27;20066;-75
2022/01/14 08:03:42;;;;;;;27.33;10.27;;;6.20;99.90;;;;;;5116639;27;20051;-75
2022/01/14 08:06:10;;;;;;;27.75;9.93;;;6.20;99.90;;;;;;5105140;27;20047;-75
2022/01/14 08:08:38;;;;;;;26.77;9.75;;;6.20;99.90;;;;;;5114845;27;20055;-75
2022/01/14 08:11:05;;;;;;;28.73;10.00;;;6.10;99.90;;;;;;5120434;27;20049;-75
2022/01/14 08:13:31;;;;;;;24.90;9.73;;;6.20;99.90;;;;;;5124879;27;20122;-75
2022/01/14 08:15:56;;;;;;;26.80;9.80;;;6.20;99.90;;;;;;5118106;27;20426;-75
2022/01/14 08:18:22;;;;;;;22.60;8.70;;;6.20;99.90;;;;;;5124729;27;20038;-75
2022/01/14 08:20:48;;;;;;;24.85;8.65;;;6.20;99.90;;;;;;5118492;27;20031;-74
2022/01/14 08:23:14;;;;;;;21.90;8.45;;;6.20;99.90;;;;;;5121941;27;20095;-76
2022/01/14 08:25:39;;;;;;;21.02;8.88;;;6.30;99.90;;;;;;5108043;28;20046;-75
2022/01/14 08:28:05;;;;;;;22.17;8.63;;;6.80;99.90;;;;;;5104924;28;20118;-75
2022/01/14 08:30:31;;;;;;;22.27;9.13;;;6.30;99.90;;;;;;5120845;28;20138;-75
2022/01/14 08:32:57;;;;;;;28.17;8.52;;;6.70;99.90;;;;;;5117932;28;20042;-75
2022/01/14 08:35:22;;;;;;;21.60;8.10;;;6.30;99.90;;;;;;5116731;28;20046;-75
2022/01/14 08:37:48;;;;;;;18.23;7.73;;;6.30;99.90;;;;;;5099353;28;20083;-75
2022/01/14 08:40:14;;;;;;;19.83;8.20;;;6.40;99.90;;;;;;5120209;28;20376;-75
2022/01/14 08:42:39;;;;;;;18.23;7.90;;;6.30;99.90;;;;;;5100034;28;20282;-75
2022/01/14 08:45:06;;;;;;;20.15;7.45;;;6.40;99.90;;;;;;5120392;28;20320;-74
2022/01/14 08:47:32;;;;;;;18.77;7.82;;;6.40;99.90;;;;;;5116939;28;20520;-75
2022/01/14 08:49:58;;;;;;;22.48;7.20;;;6.40;99.90;;;;;;5102591;28;20036;-75
2022/01/14 08:52:25;;;;;;;14.77;6.75;;;6.40;99.90;;;;;;5121694;28;20126;-75
2022/01/14 08:54:51;;;;;;;18.58;7.15;;;6.50;99.90;;;;;;5102278;28;20039;-75
2022/01/14 08:57:18;;;;;;;16.65;6.85;;;6.50;99.90;;;;;;5097162;28;20087;-75
2022/01/14 08:59:44;;;;;;;16.85;6.32;;;6.70;99.90;;;;;;5083124;28;20054;-75
2022/01/14 09:02:10;;;;;;;17.75;6.40;;;6.50;99.90;;;;;;5083446;28;20058;-75
2022/01/14 09:04:36;;;;;;;18.70;6.32;;;6.60;99.90;;;;;;5114026;28;20043;-75
2022/01/14 09:07:02;;;;;;;16.77;6.38;;;6.70;99.90;;;;;;5122511;27;20119;-76
2022/01/14 09:09:28;;;;;;;17.15;5.75;;;6.60;99.90;;;;;;5119200;27;20100;-76
2022/01/14 09:11:55;;;;;;;14.90;6.07;;;6.70;99.90;;;;;;5120241;27;20043;-76
2022/01/14 09:14:21;;;;;;;12.55;5.88;;;6.70;99.90;;;;;;5122729;27;20042;-75
2022/01/14 09:16:47;;;;;;;16.50;5.80;;;6.70;99.90;;;;;;5110010;27;20041;-75
2022/01/14 09:19:13;;;;;;;18.55;5.78;;;6.70;99.90;;;;;;5131713;27;20043;-76
2022/01/14 09:21:39;;;;;;;;;;;6.80;99.90;;;;;;5127820;27;20121;-75
2022/01/14 09:24:05;;;;;;;14.15;5.40;;;6.80;99.90;;;;;;5132110;27;20014;-75
2022/01/14 09:26:34;;;;;;;16.92;5.15;;;6.80;99.90;;;;;;5110874;27;20049;-76
2022/01/14 09:29:01;;;;;;;17.13;5.63;;;6.90;99.90;;;;;;5111467;27;20046;-76
2022/01/14 09:31:27;;;;;;;15.15;4.60;;;6.90;99.90;;;;;;5121689;27;20107;-76
2022/01/14 09:33:54;;;;;;;14.05;4.82;;;6.90;99.90;;;;;;5128477;27;20031;-76
2022/01/14 09:36:20;;;;;;;18.02;5.22;;;6.90;99.90;;;;;;5126738;27;20039;-76
2022/01/14 09:38:46;;;;;;;11.70;4.72;;;7.00;99.90;;;;;;5106697;27;20083;-76
2022/01/14 09:41:13;;;;;;;;;;;7.00;99.90;;;;;;5129409;27;20401;-75
2022/01/14 09:43:39;;;;;;;15.10;4.20;;;7.00;99.90;;;;;;5124110;27;20366;-76
2022/01/14 09:46:06;;;;;;;19.98;4.75;;;7.10;99.90;;;;;;5106832;27;20050;-76
2022/01/14 09:48:33;;;;;;;11.55;4.28;;;7.10;99.90;;;;;;5109646;27;20041;-76
2022/01/14 09:50:59;;;;;;;12.07;4.40;;;7.10;99.90;;;;;;5125618;27;20585;-76
2022/01/14 09:53:26;;;;;;;11.82;4.45;;;7.10;99.90;;;;;;5124228;27;20122;-76
2022/01/14 09:55:52;;;;;;;12.85;4.35;;;7.10;99.90;;;;;;5124951;27;20050;-76
2022/01/14 09:58:18;;;;;;;15.02;4.30;;;7.20;99.90;;;;;;5127613;27;20035;-76
2022/01/14 10:00:44;;;;;;;16.13;4.10;;;7.20;99.90;;;;;;5124257;27;20176;-76
2022/01/14 10:03:25;;;;;;;16.30;4.28;;;7.60;99.90;;;;;;5106603;27;20414;-76
2022/01/14 10:05:56;;;;;;;11.32;3.70;;;7.20;99.90;;;;;;5128005;27;20031;-76
2022/01/14 10:08:27;;;;;;;14.95;3.67;;;7.20;99.90;;;;;;5115115;27;20050;-76
2022/01/14 10:10:57;;;;;;;15.23;3.58;;;7.30;99.90;;;;;;5121517;27;20384;-76
2022/01/14 10:13:34;;;;;;;11.05;3.92;;;7.30;99.90;;;;;;5120268;27;20516;-76
2022/01/14 10:16:09;;;;;;;18.30;3.70;;;7.30;99.90;;;;;;5100115;28;20055;-75
2022/01/14 10:18:36;;;;;;;9.30;3.30;;;7.30;99.90;;;;;;5119929;27;20062;-75
2022/01/14 10:21:06;;;;;;;13.23;3.42;;;7.30;99.90;;;;;;5119803;27;20604;-75
2022/01/14 10:23:43;;;;;;;12.85;3.40;;;7.30;99.90;;;;;;5105007;28;20039;-75
2022/01/14 10:26:10;;;;;;;12.07;3.40;;;7.30;99.90;;;;;;5122344;27;20547;-75
2022/01/14 10:28:37;;;;;;;8.05;3.20;;;7.40;99.90;;;;;;5124235;27;20135;-75
2022/01/14 10:31:05;;;;;;;10.77;2.97;;;7.40;99.90;;;;;;5102495;27;20035;-75
2022/01/14 10:33:31;;;;;;;12.70;3.50;;;7.40;99.90;;;;;;5126890;27;20071;-76
2022/01/14 10:35:57;;;;;;;11.68;3.15;;;7.50;99.90;;;;;;5123187;27;20070;-75
2022/01/14 10:38:26;;;;;;;14.27;3.08;;;7.30;99.90;;;;;;5123407;27;20053;-75
2022/01/14 10:40:54;;;;;;;9.48;3.05;;;7.30;99.90;;;;;;5119753;27;20356;-76
2022/01/14 10:43:22;;;;;;;10.75;3.30;;;7.30;99.90;;;;;;5122384;27;20479;-76
2022/01/14 10:45:50;;;;;;;12.63;3.22;;;7.30;99.90;;;;;;5105321;27;20050;-75
2022/01/14 10:48:32;;;;;;;13.13;3.33;;;7.30;99.90;;;;;;5124303;27;20032;-76
2022/01/14 10:51:00;;;;;;;13.18;3.08;;;7.30;99.90;;;;;;5120180;27;20067;-76
2022/01/14 10:53:38;;;;;;;12.95;3.30;;;7.30;99.90;;;;;;5103714;27;20046;-75
2022/01/14 10:56:05;;;;;;;16.10;3.70;;;7.30;99.90;;;;;;5123168;27;20043;-76
2022/01/14 10:58:35;;;;;;;14.27;3.40;;;7.30;99.90;;;;;;5126231;27;20035;-77
2022/01/14 11:01:14;;;;;;;10.88;3.67;;;7.30;99.90;;;;;;5126715;27;20038;-77
2022/01/14 11:03:40;;;;;;;12.25;3.90;;;7.30;99.90;;;;;;5117059;27;20058;-78
2022/01/14 11:06:24;;;;;;;12.77;3.50;;;7.30;99.90;;;;;;5119628;27;20035;-78
2022/01/14 11:09:14;;;;;;;12.63;3.53;;;7.40;99.90;;;;;;5118051;27;20099;-78
2022/01/14 11:11:42;;;;;;;14.45;4.20;;;7.40;99.90;;;;;;5121252;27;20678;-76
2022/01/14 11:14:08;;;;;;;13.23;3.30;;;7.40;99.90;;;;;;5078909;27;20487;-77
2022/01/14 11:16:35;;;;;;;12.00;3.28;;;7.40;99.90;;;;;;5114267;27;20114;-77
2022/01/14 11:19:03;;;;;;;17.27;3.40;;;7.40;99.90;;;;;;5120593;27;20437;-78
2022/01/14 11:24:27;;;;;;;12.32;3.63;;;7.30;99.90;;;;;;5114174;27;20046;-78
2022/01/14 11:26:59;;;;;;;14.70;3.90;;;7.40;99.90;;;;;;5123763;27;20031;-78
2022/01/14 11:29:31;;;;;;;9.70;3.30;;;7.40;99.90;;;;;;5121121;27;20416;-78
2022/01/14 11:31:59;;;;;;;10.27;3.58;;;7.60;99.90;;;;;;5128248;27;20078;-79
2022/01/14 11:34:32;;;;;;;18.17;4.00;;;7.40;99.90;;;;;;5116120;27;20043;-77
2022/01/14 11:37:00;;;;;;;13.55;3.75;;;7.50;99.90;;;;;;5123585;27;20038;-78
2022/01/14 11:39:31;;;;;;;13.20;3.88;;;7.50;99.90;;;;;;5105846;27;20043;-77
2022/01/14 11:41:58;;;;;;;16.73;4.13;;;7.50;99.90;;;;;;5122739;27;20042;-77
2022/01/14 11:44:42;;;;;;;18.02;4.55;;;7.50;99.90;;;;;;5122760;27;20050;-77
2022/01/14 11:47:38;;;;;;;17.40;3.75;;;7.40;99.90;;;;;;5106559;27;20028;-77
2022/01/14 11:50:23;;;;;;;15.57;3.78;;;7.40;99.90;;;;;;5112840;27;20050;-77
2022/01/14 11:52:50;;;;;;;13.48;3.60;;;7.40;99.90;;;;;;5126095;27;20623;-77
2022/01/14 11:55:19;;;;;;;20.77;4.20;;;7.50;99.90;;;;;;5124489;27;20042;-78
2022/01/14 11:57:48;;;;;;;12.85;4.15;;;7.50;99.90;;;;;;5117370;27;20044;-77
2022/01/14 12:00:33;;;;;;;17.35;4.35;;;7.50;99.90;;;;;;5120987;27;20043;-78
2022/01/14 12:03:06;;;;;;;11.50;3.90;;;7.50;99.90;;;;;;5118386;27;20455;-77
2022/01/14 12:05:32;;;;;;;14.95;4.28;;;7.50;99.90;;;;;;5119962;27;20046;-77
2022/01/14 12:08:02;;;;;;;20.63;4.50;;;7.50;99.90;;;;;;5117472;27;20069;-78
2022/01/14 12:10:29;;;;;;;14.82;5.07;;;7.50;99.90;;;;;;5118300;27;20048;-78
2022/01/14 12:13:43;;;;;;;15.65;4.18;;;7.60;99.90;;;;;;5100891;28;20073;-77
2022/01/14 12:16:09;;;;;;;14.20;3.90;;;7.60;99.90;;;;;;5113873;27;20447;-78
2022/01/14 12:18:57;;;;;;;15.13;4.50;;;8.30;99.90;;;;;;5119747;27;20117;-77
2022/01/14 12:21:38;;;;;;;19.67;4.40;;;7.60;99.90;;;;;;5125663;27;20781;-78
2022/01/14 12:24:18;;;;;;;15.70;4.53;;;7.60;99.90;;;;;;5119655;27;20043;-78
2022/01/14 12:27:05;;;;;;;17.33;4.05;;;7.60;99.90;;;;;;5122229;27;20091;-78
2022/01/14 12:29:37;;;;;;;13.77;3.55;;;7.70;99.90;;;;;;5122161;28;20031;-78
2022/01/14 12:32:05;;;;;;;16.60;4.60;;;7.60;99.90;;;;;;5100083;28;20066;-78
2022/01/14 12:34:32;;;;;;;11.82;4.20;;;7.60;99.90;;;;;;5115925;28;20039;-77
2022/01/14 12:36:58;;;;;;;13.95;4.10;;;7.60;99.90;;;;;;5116928;28;20491;-77
2022/01/14 12:39:24;;;;;;;19.10;4.32;;;7.50;99.90;;;;;;5122715;28;20122;-77
2022/01/14 12:41:55;;;;;;;16.75;4.15;;;7.50;99.90;;;;;;5119972;28;20036;-78
2022/01/14 12:44:22;;;;;;;18.80;4.30;;;7.50;99.90;;;;;;5120367;28;20130;-78
2022/01/14 12:46:58;;;;;;;14.52;4.40;;;7.60;99.90;;;;;;5100493;28;20510;-78
2022/01/14 12:49:35;;;;;;;20.58;4.35;;;7.60;99.90;;;;;;5116564;27;20039;-79
2022/01/14 12:52:11;;;;;;;24.70;4.85;;;7.50;99.90;;;;;;5119708;27;20127;-79
2022/01/14 12:54:39;;;;;;;23.13;4.63;;;7.60;99.90;;;;;;5123215;27;20039;-78
2022/01/14 12:57:05;;;;;;;18.60;4.38;;;7.60;99.90;;;;;;5124360;27;20039;-78
2022/01/14 12:59:41;;;;;;;18.10;5.00;;;7.60;99.90;;;;;;5121784;27;20074;-78
2022/01/14 13:02:07;;;;;;;20.42;4.50;;;7.50;99.90;;;;;;5135505;27;20046;-78
2022/01/14 13:04:34;;;;;;;24.15;4.97;;;7.60;99.90;;;;;;5123877;27;20129;-78
2022/01/14 13:07:03;;;;;;;19.67;4.45;;;7.60;99.90;;;;;;5103443;27;20482;-78
2022/01/14 13:09:35;;;;;;;24.02;4.47;;;7.50;99.90;;;;;;5128941;27;20531;-78
2022/01/14 13:12:04;;;;;;;18.80;5.05;;;7.50;99.90;;;;;;5124072;27;20047;-78
2022/01/14 13:14:46;;;;;;;22.05;5.10;;;7.50;99.90;;;;;;5123875;27;20035;-77
2022/01/14 13:17:18;;;;;;;23.02;4.88;;;7.50;99.90;;;;;;5124078;27;20042;-78
2022/01/14 13:19:47;;;;;;;18.27;4.47;;;7.50;99.90;;;;;;5125167;27;20118;-78
2022/01/14 13:22:18;;;;;;;25.27;4.78;;;7.50;99.90;;;;;;5123787;27;20032;-78